createdAt,value
2018-06-14T00:00:52.892Z,11.2
2018-06-14T00:01:54.498Z,11.2
2018-06-14T00:02:56.110Z,11.1
2018-06-14T00:03:57.724Z,11.2
2018-06-14T00:04:59.341Z,11.3
2018-06-14T00:06:00.949Z,11.3
2018-06-14T00:07:02.573Z,11.2
2018-06-14T00:08:04.192Z,11.3
2018-06-14T00:09:05.797Z,11.3
2018-06-14T00:10:07.409Z,11.3
2018-06-14T00:11:09.015Z,11.3
2018-06-14T00:12:10.630Z,11.3
2018-06-14T00:13:12.240Z,11.2
2018-06-14T00:14:13.850Z,11.2
2018-06-14T00:15:15.469Z,11.3
2018-06-14T00:16:17.079Z,11.2
2018-06-14T00:17:18.744Z,11.4
2018-06-14T00:18:20.299Z,11.2
2018-06-14T00:19:21.912Z,11.4
2018-06-14T00:20:23.520Z,11.3
2018-06-14T00:21:25.131Z,11.3
2018-06-14T00:22:26.743Z,11.3
2018-06-14T00:23:28.357Z,11.2
2018-06-14T00:24:29.969Z,11.2
2018-06-14T00:25:31.584Z,11.1
2018-06-14T00:26:33.191Z,11.1
2018-06-14T00:27:34.798Z,11.1
2018-06-14T00:28:36.416Z,11.1
2018-06-14T00:29:38.029Z,11.0
2018-06-14T00:30:39.642Z,11.1
2018-06-14T00:31:41.265Z,11.1
2018-06-14T00:32:42.858Z,11.1
2018-06-14T00:33:44.473Z,11.1
2018-06-14T00:34:46.088Z,11.1
2018-06-14T00:35:47.701Z,11.1
2018-06-14T00:36:49.312Z,11.0
2018-06-14T00:37:50.926Z,11.0
2018-06-14T00:38:52.540Z,11.0
2018-06-14T00:39:54.154Z,11.0
2018-06-14T00:40:55.769Z,11.0
2018-06-14T00:41:57.376Z,10.9
2018-06-14T00:42:58.994Z,11.0
2018-06-14T00:44:00.606Z,10.9
2018-06-14T00:45:02.219Z,10.9
2018-06-14T00:46:03.831Z,10.9
2018-06-14T00:47:05.440Z,10.8
2018-06-14T00:48:07.052Z,10.9
2018-06-14T00:49:08.662Z,10.8
2018-06-14T00:50:10.275Z,10.9
2018-06-14T00:51:11.889Z,10.8
2018-06-14T00:52:13.503Z,10.8
2018-06-14T00:53:15.113Z,10.9
2018-06-14T00:54:16.722Z,10.8
2018-06-14T00:55:18.339Z,10.9
2018-06-14T00:56:19.950Z,10.8
2018-06-14T00:57:21.568Z,10.8
2018-06-14T00:58:23.179Z,10.8
2018-06-14T00:59:24.793Z,10.8
2018-06-14T01:00:26.402Z,10.8
2018-06-14T01:01:28.018Z,10.8
2018-06-14T01:02:29.633Z,10.8
2018-06-14T01:03:31.242Z,10.8
2018-06-14T01:04:32.862Z,10.8
2018-06-14T01:05:34.469Z,10.7
2018-06-14T01:06:36.082Z,10.7
2018-06-14T01:07:37.700Z,10.8
2018-06-14T01:08:39.304Z,10.8
2018-06-14T01:09:40.914Z,10.7
2018-06-14T01:10:42.529Z,10.7
2018-06-14T01:11:44.141Z,10.7
2018-06-14T01:12:45.753Z,10.7
2018-06-14T01:13:47.369Z,10.7
2018-06-14T01:14:48.978Z,10.7
2018-06-14T01:15:50.584Z,10.7
2018-06-14T01:16:52.197Z,10.7
2018-06-14T01:17:53.815Z,10.6
2018-06-14T01:18:55.422Z,10.7
2018-06-14T01:19:57.040Z,10.7
2018-06-14T01:20:58.649Z,10.7
2018-06-14T01:22:00.257Z,10.6
2018-06-14T01:23:01.867Z,10.6
2018-06-14T01:24:03.484Z,10.6
2018-06-14T01:25:05.094Z,10.6
2018-06-14T01:26:06.711Z,10.6
2018-06-14T01:27:08.319Z,10.5
2018-06-14T01:28:09.934Z,10.6
2018-06-14T01:29:11.542Z,10.5
2018-06-14T01:30:13.154Z,10.7
2018-06-14T01:31:14.763Z,10.5
2018-06-14T01:32:16.382Z,10.6
2018-06-14T01:33:17.992Z,10.5
2018-06-14T01:34:19.609Z,10.5
2018-06-14T01:35:21.215Z,10.5
2018-06-14T01:36:22.830Z,10.5
2018-06-14T01:37:24.439Z,10.6
2018-06-14T01:38:26.057Z,10.6
2018-06-14T01:39:27.665Z,10.6
2018-06-14T01:40:29.283Z,10.4
2018-06-14T01:41:30.896Z,10.5
2018-06-14T01:42:32.511Z,10.5
2018-06-14T01:43:34.119Z,10.4
2018-06-14T01:44:35.735Z,10.5
2018-06-14T01:45:37.341Z,10.5
2018-06-14T01:46:38.956Z,10.4
2018-06-14T01:47:40.565Z,10.5
2018-06-14T01:48:42.182Z,10.4
2018-06-14T01:49:43.792Z,10.5
2018-06-14T01:50:45.407Z,10.4
2018-06-14T01:51:47.016Z,10.4
2018-06-14T01:52:48.630Z,10.4
2018-06-14T01:53:50.237Z,10.4
2018-06-14T01:54:51.851Z,10.4
2018-06-14T01:55:53.472Z,10.4
2018-06-14T01:56:55.080Z,10.3
2018-06-14T01:57:56.693Z,10.5
2018-06-14T01:58:58.299Z,10.4
2018-06-14T01:59:59.908Z,10.4
2018-06-14T02:01:01.524Z,10.4
2018-06-14T02:02:03.129Z,10.3
2018-06-14T02:03:04.747Z,10.3
2018-06-14T02:04:06.353Z,10.4
2018-06-14T02:05:07.972Z,10.3
2018-06-14T02:06:09.584Z,10.3
2018-06-14T02:07:11.194Z,10.3
2018-06-14T02:08:12.813Z,10.4
2018-06-14T02:09:14.423Z,10.4
2018-06-14T02:10:16.036Z,10.3
2018-06-14T02:11:17.650Z,10.3
2018-06-14T02:12:19.260Z,10.3
2018-06-14T02:13:20.868Z,10.4
2018-06-14T02:14:22.478Z,10.4
2018-06-14T02:15:24.092Z,10.3
2018-06-14T02:16:25.713Z,10.3
2018-06-14T02:17:27.324Z,10.3
2018-06-14T02:18:28.936Z,10.3
2018-06-14T02:19:30.545Z,10.3
2018-06-14T02:20:32.162Z,10.3
2018-06-14T02:21:33.771Z,10.2
2018-06-14T02:22:35.385Z,10.2
2018-06-14T02:23:36.999Z,10.3
2018-06-14T02:24:38.606Z,10.3
2018-06-14T02:25:40.220Z,10.2
2018-06-14T02:26:41.832Z,10.1
2018-06-14T02:27:43.441Z,10.2
2018-06-14T02:28:45.052Z,10.2
2018-06-14T02:29:46.664Z,10.1
2018-06-14T02:30:48.273Z,10.1
2018-06-14T02:31:49.890Z,10.1
2018-06-14T02:32:51.504Z,10.3
2018-06-14T02:33:53.117Z,10.1
2018-06-14T02:34:54.731Z,10.1
2018-06-14T02:35:56.338Z,10.2
2018-06-14T02:36:57.952Z,10.1
2018-06-14T02:37:59.565Z,10.1
2018-06-14T02:39:01.183Z,10.1
2018-06-14T02:40:02.785Z,10.1
2018-06-14T02:41:04.394Z,10.2
2018-06-14T02:42:06.012Z,10.1
2018-06-14T02:43:07.626Z,10.1
2018-06-14T02:44:09.233Z,10.1
2018-06-14T02:45:10.845Z,10.0
2018-06-14T02:46:12.463Z,10.1
2018-06-14T02:47:14.077Z,10.0
2018-06-14T02:48:15.689Z,10.1
2018-06-14T02:49:17.302Z,10.0
2018-06-14T02:50:18.916Z,10.0
2018-06-14T02:51:20.527Z,10.0
2018-06-14T02:52:22.143Z,10.0
2018-06-14T02:53:23.751Z,10.0
2018-06-14T02:54:25.369Z,10.0
2018-06-14T02:55:26.974Z,10.1
2018-06-14T02:56:28.591Z,10.1
2018-06-14T02:57:30.201Z,10.1
2018-06-14T02:58:31.816Z,10.1
2018-06-14T02:59:33.426Z,9.9
2018-06-14T03:00:35.587Z,10.0
2018-06-14T03:01:37.205Z,10.0
2018-06-14T03:02:39.383Z,10.0
2018-06-14T03:03:40.998Z,10.0
2018-06-14T03:04:42.612Z,10.0
2018-06-14T03:05:44.225Z,10.0
2018-06-14T03:06:45.839Z,10.0
2018-06-14T03:07:47.462Z,10.0
2018-06-14T03:08:49.069Z,10.0
2018-06-14T03:09:50.687Z,9.9
2018-06-14T03:10:52.295Z,10.0
2018-06-14T03:11:53.933Z,9.9
2018-06-14T03:12:55.544Z,10.0
2018-06-14T03:13:57.161Z,9.9
2018-06-14T03:14:58.779Z,9.9
2018-06-14T03:16:00.395Z,10.0
2018-06-14T03:17:02.004Z,9.9
2018-06-14T03:18:03.617Z,10.0
2018-06-14T03:19:05.236Z,9.9
2018-06-14T03:20:06.852Z,9.9
2018-06-14T03:21:08.469Z,10.0
2018-06-14T03:22:10.085Z,10.0
2018-06-14T03:23:11.702Z,10.0
2018-06-14T03:24:13.309Z,9.9
2018-06-14T03:25:14.929Z,9.9
2018-06-14T03:26:16.540Z,10.0
2018-06-14T03:27:18.158Z,10.0
2018-06-14T03:28:19.771Z,10.0
2018-06-14T03:29:21.392Z,10.0
2018-06-14T03:30:23.007Z,10.0
2018-06-14T03:31:24.625Z,10.0
2018-06-14T03:32:26.231Z,9.9
2018-06-14T03:33:27.847Z,9.9
2018-06-14T03:34:29.464Z,10.1
2018-06-14T03:35:31.078Z,10.0
2018-06-14T03:36:32.693Z,10.1
2018-06-14T03:37:34.310Z,10.1
2018-06-14T03:38:35.923Z,10.2
2018-06-14T03:39:37.676Z,10.1
2018-06-14T03:40:39.685Z,10.3
2018-06-14T03:41:41.343Z,10.4
2018-06-14T03:42:43.054Z,10.3
2018-06-14T03:43:44.759Z,10.3
2018-06-14T03:44:46.571Z,10.4
2018-06-14T03:45:48.353Z,10.3
2018-06-14T03:46:50.158Z,10.4
2018-06-14T03:47:51.950Z,10.4
2018-06-14T03:48:53.566Z,10.3
2018-06-14T03:49:55.178Z,10.4
2018-06-14T03:50:56.799Z,10.5
2018-06-14T03:51:58.435Z,10.5
2018-06-14T03:53:00.027Z,10.5
2018-06-14T03:54:01.640Z,10.5
2018-06-14T03:55:03.253Z,10.5
2018-06-14T03:56:04.869Z,10.6
2018-06-14T03:57:06.485Z,10.5
2018-06-14T03:58:08.128Z,10.5
2018-06-14T03:59:09.742Z,10.5
2018-06-14T04:00:11.362Z,10.5
2018-06-14T04:01:12.974Z,10.7
2018-06-14T04:02:14.595Z,10.6
2018-06-14T04:03:16.261Z,10.7
2018-06-14T04:04:17.883Z,10.7
2018-06-14T04:05:19.499Z,10.7
2018-06-14T04:06:21.120Z,10.7
2018-06-14T04:07:22.739Z,10.7
2018-06-14T04:08:24.350Z,10.8
2018-06-14T04:09:25.969Z,10.7
2018-06-14T04:10:27.645Z,10.8
2018-06-14T04:11:29.204Z,11.0
2018-06-14T04:12:30.832Z,11.2
2018-06-14T04:13:32.450Z,11.1
2018-06-14T04:14:34.150Z,11.2
2018-06-14T04:15:35.769Z,11.2
2018-06-14T04:16:37.381Z,11.3
2018-06-14T04:17:39.140Z,11.6
2018-06-14T04:18:40.766Z,11.6
2018-06-14T04:19:43.041Z,11.9
2018-06-14T04:20:44.695Z,11.8
2018-06-14T04:21:46.328Z,11.9
2018-06-14T04:22:47.966Z,11.9
2018-06-14T04:23:49.588Z,11.7
2018-06-14T04:24:51.201Z,11.7
2018-06-14T04:25:52.869Z,11.9
2018-06-14T04:26:54.485Z,11.9
2018-06-14T04:27:56.142Z,11.9
2018-06-14T04:28:57.761Z,12.1
2018-06-14T04:29:59.379Z,12.0
2018-06-14T04:31:00.993Z,12.2
2018-06-14T04:32:02.609Z,12.2
2018-06-14T04:33:04.230Z,12.0
2018-06-14T04:34:05.847Z,12.1
2018-06-14T04:35:07.605Z,12.0
2018-06-14T04:36:09.221Z,12.0
2018-06-14T04:37:10.843Z,11.9
2018-06-14T04:38:13.323Z,11.9
2018-06-14T04:39:14.962Z,11.8
2018-06-14T04:40:16.554Z,11.8
2018-06-14T04:41:18.192Z,11.9
2018-06-14T04:42:19.804Z,11.8
2018-06-14T04:43:21.416Z,11.9
2018-06-14T04:44:23.033Z,11.8
2018-06-14T04:45:24.647Z,11.8
2018-06-14T04:46:26.368Z,11.8
2018-06-14T04:47:27.991Z,11.9
2018-06-14T04:48:29.607Z,11.9
2018-06-14T04:49:31.226Z,11.9
2018-06-14T04:50:32.887Z,11.8
2018-06-14T04:51:34.507Z,11.9
2018-06-14T04:52:36.125Z,12.1
2018-06-14T04:53:37.776Z,12.4
2018-06-14T04:54:39.360Z,12.3
2018-06-14T04:55:40.979Z,12.2
2018-06-14T04:56:42.605Z,12.2
2018-06-14T04:57:44.214Z,12.1
2018-06-14T04:58:45.829Z,12.1
2018-06-14T04:59:47.451Z,12.2
2018-06-14T05:00:49.067Z,12.2
2018-06-14T05:01:50.689Z,12.2
2018-06-14T05:02:52.304Z,12.2
2018-06-14T05:03:53.922Z,12.2
2018-06-14T05:04:55.540Z,12.3
2018-06-14T05:05:57.152Z,12.5
2018-06-14T05:06:58.775Z,12.5
2018-06-14T05:08:00.396Z,12.6
2018-06-14T05:09:02.002Z,12.6
2018-06-14T05:10:03.623Z,12.6
2018-06-14T05:11:05.242Z,12.6
2018-06-14T05:12:06.854Z,12.6
2018-06-14T05:13:08.472Z,12.7
2018-06-14T05:14:10.092Z,12.6
2018-06-14T05:15:11.704Z,12.6
2018-06-14T05:16:13.330Z,12.7
2018-06-14T05:17:14.946Z,12.6
2018-06-14T05:18:16.566Z,12.7
2018-06-14T05:19:18.179Z,12.7
2018-06-14T05:20:19.797Z,12.8
2018-06-14T05:21:21.413Z,12.7
2018-06-14T05:22:23.034Z,12.7
2018-06-14T05:23:24.730Z,12.8
2018-06-14T05:24:26.271Z,12.8
2018-06-14T05:25:27.882Z,12.8
2018-06-14T05:26:29.502Z,12.9
2018-06-14T05:27:31.115Z,12.8
2018-06-14T05:28:32.737Z,12.9
2018-06-14T05:29:34.396Z,12.7
2018-06-14T05:30:35.979Z,12.8
2018-06-14T05:31:37.592Z,12.9
2018-06-14T05:32:39.213Z,13.0
2018-06-14T05:33:40.823Z,13.0
2018-06-14T05:34:42.444Z,13.0
2018-06-14T05:35:44.061Z,13.1
2018-06-14T05:36:45.681Z,13.1
2018-06-14T05:37:47.297Z,13.2
2018-06-14T05:38:48.922Z,13.2
2018-06-14T05:39:50.534Z,13.3
2018-06-14T05:40:52.152Z,13.3
2018-06-14T05:41:53.772Z,13.4
2018-06-14T05:42:55.391Z,13.4
2018-06-14T05:43:57.013Z,13.5
2018-06-14T05:44:58.638Z,13.5
2018-06-14T05:46:00.256Z,13.5
2018-06-14T05:47:01.876Z,13.6
2018-06-14T05:48:03.489Z,13.8
2018-06-14T05:49:05.108Z,13.8
2018-06-14T05:50:06.727Z,13.8
2018-06-14T05:51:08.343Z,13.9
2018-06-14T05:52:09.968Z,14.0
2018-06-14T05:53:11.578Z,14.1
2018-06-14T05:54:13.193Z,14.1
2018-06-14T05:55:14.814Z,14.1
2018-06-14T05:56:16.435Z,14.3
2018-06-14T05:57:18.048Z,14.4
2018-06-14T05:58:19.668Z,14.4
2018-06-14T05:59:21.286Z,14.5
2018-06-14T06:00:22.901Z,14.6
2018-06-14T06:01:24.526Z,14.5
2018-06-14T06:02:26.143Z,14.7
2018-06-14T06:03:27.763Z,14.7
2018-06-14T06:04:29.385Z,14.8
2018-06-14T06:05:31.001Z,14.9
2018-06-14T06:06:32.616Z,14.9
2018-06-14T06:07:34.238Z,14.9
2018-06-14T06:08:35.858Z,15.1
2018-06-14T06:09:37.475Z,15.1
2018-06-14T06:10:39.093Z,15.2
2018-06-14T06:11:40.709Z,15.5
2018-06-14T06:12:42.329Z,16.0
2018-06-14T06:13:43.954Z,16.8
2018-06-14T06:14:45.575Z,17.6
2018-06-14T06:15:47.197Z,18.5
2018-06-14T06:16:48.824Z,19.4
2018-06-14T06:17:50.440Z,20.4
2018-06-14T06:18:52.057Z,21.0
2018-06-14T06:19:53.691Z,21.7
2018-06-14T06:20:55.297Z,22.2
2018-06-14T06:21:56.923Z,22.6
2018-06-14T06:22:58.545Z,23.0
2018-06-14T06:24:00.163Z,23.5
2018-06-14T06:25:01.797Z,23.8
2018-06-14T06:26:03.413Z,24.3
2018-06-14T06:27:05.058Z,24.4
2018-06-14T06:28:06.655Z,24.7
2018-06-14T06:29:08.273Z,25.0
2018-06-14T06:30:09.898Z,25.4
2018-06-14T06:31:11.518Z,25.2
2018-06-14T06:32:13.145Z,25.3
2018-06-14T06:33:14.819Z,25.6
2018-06-14T06:34:16.389Z,25.5
2018-06-14T06:35:18.019Z,25.8
2018-06-14T06:36:19.640Z,26.1
2018-06-14T06:37:21.281Z,26.7
2018-06-14T06:38:22.898Z,27.3
2018-06-14T06:39:24.528Z,27.7
2018-06-14T06:40:26.148Z,27.6
2018-06-14T06:41:27.781Z,28.1
2018-06-14T06:42:29.402Z,28.3
2018-06-14T06:43:31.031Z,28.0
2018-06-14T06:44:32.660Z,28.4
2018-06-14T06:45:34.278Z,28.3
2018-06-14T06:46:35.909Z,28.3
2018-06-14T06:47:37.532Z,27.7
2018-06-14T06:48:39.167Z,28.4
2018-06-14T06:49:40.787Z,28.2
2018-06-14T06:50:42.417Z,27.9
2018-06-14T06:51:44.045Z,27.9
2018-06-14T06:52:45.669Z,27.7
2018-06-14T06:53:47.300Z,27.8
2018-06-14T06:54:48.925Z,28.2
2018-06-14T06:55:50.555Z,28.3
2018-06-14T06:56:52.182Z,28.6
2018-06-14T06:57:53.811Z,28.5
2018-06-14T06:58:55.454Z,27.9
2018-06-14T06:59:57.064Z,28.2
2018-06-14T07:00:58.690Z,28.4
2018-06-14T07:02:00.319Z,28.9
2018-06-14T07:03:01.944Z,29.1
2018-06-14T07:04:03.577Z,28.9
2018-06-14T07:05:05.207Z,28.1
2018-06-14T07:06:06.910Z,27.8
2018-06-14T07:07:08.469Z,27.9
2018-06-14T07:08:10.093Z,28.1
2018-06-14T07:09:11.725Z,28.2
2018-06-14T07:10:13.353Z,27.9
2018-06-14T07:11:14.989Z,27.4
2018-06-14T07:12:16.614Z,27.4
2018-06-14T07:13:18.246Z,27.9
2018-06-14T07:14:19.871Z,27.4
2018-06-14T07:15:21.502Z,27.9
2018-06-14T07:16:23.127Z,28.0
2018-06-14T07:17:24.755Z,27.7
2018-06-14T07:18:26.384Z,27.4
2018-06-14T07:19:28.017Z,27.2
2018-06-14T07:20:29.640Z,26.9
2018-06-14T07:21:31.313Z,27.0
2018-06-14T07:22:32.899Z,27.2
2018-06-14T07:23:34.526Z,27.7
2018-06-14T07:24:36.157Z,27.4
2018-06-14T07:25:37.791Z,27.8
2018-06-14T07:26:39.433Z,28.3
2018-06-14T07:27:41.095Z,27.9
2018-06-14T07:28:42.675Z,27.7
2018-06-14T07:29:44.310Z,28.0
2018-06-14T07:30:45.942Z,28.4
2018-06-14T07:31:47.570Z,29.2
2018-06-14T07:32:49.198Z,28.7
2018-06-14T07:33:50.831Z,29.0
2018-06-14T07:34:52.458Z,29.1
2018-06-14T07:35:54.088Z,29.2
2018-06-14T07:36:55.718Z,29.4
2018-06-14T07:37:57.355Z,29.5
2018-06-14T07:38:58.988Z,29.3
2018-06-14T07:40:00.618Z,28.3
2018-06-14T07:41:02.247Z,28.9
2018-06-14T07:42:03.882Z,28.1
2018-06-14T07:43:05.565Z,28.9
2018-06-14T07:44:07.144Z,28.6
2018-06-14T07:45:08.775Z,29.0
2018-06-14T07:46:10.409Z,29.1
2018-06-14T07:47:12.041Z,28.9
2018-06-14T07:48:13.678Z,28.9
2018-06-14T07:49:15.310Z,29.5
2018-06-14T07:50:16.938Z,29.5
2018-06-14T07:51:18.568Z,29.6
2018-06-14T07:52:20.206Z,29.6
2018-06-14T07:53:21.835Z,30.0
2018-06-14T07:54:23.475Z,29.8
2018-06-14T07:55:25.107Z,30.3
2018-06-14T07:56:26.736Z,30.8
2018-06-14T07:57:28.373Z,31.4
2018-06-14T07:58:30.004Z,31.8
2018-06-14T07:59:31.641Z,31.9
2018-06-14T08:00:33.271Z,31.8
2018-06-14T08:01:34.909Z,31.2
2018-06-14T08:02:36.542Z,31.4
2018-06-14T08:03:38.177Z,31.6
2018-06-14T08:04:39.808Z,31.1
2018-06-14T08:05:41.439Z,31.4
2018-06-14T08:06:43.077Z,31.5
2018-06-14T08:07:44.705Z,32.1
2018-06-14T08:08:46.347Z,32.6
2018-06-14T08:09:47.983Z,32.2
2018-06-14T08:10:49.620Z,32.8
2018-06-14T08:11:51.253Z,33.2
2018-06-14T08:12:52.886Z,33.7
2018-06-14T08:13:54.521Z,34.2
2018-06-14T08:14:56.160Z,34.0
2018-06-14T08:15:57.794Z,34.6
2018-06-14T08:16:59.434Z,34.5
2018-06-14T08:18:01.069Z,34.7
2018-06-14T08:19:02.705Z,35.3
2018-06-14T08:20:04.336Z,35.2
2018-06-14T08:21:05.978Z,34.8
2018-06-14T08:22:07.615Z,35.2
2018-06-14T08:23:09.253Z,35.3
2018-06-14T08:24:10.891Z,35.5
2018-06-14T08:25:12.531Z,35.0
2018-06-14T08:26:14.167Z,35.0
2018-06-14T08:27:15.800Z,34.3
2018-06-14T08:28:17.440Z,32.9
2018-06-14T08:29:19.077Z,32.7
2018-06-14T08:30:20.718Z,33.2
2018-06-14T08:31:22.363Z,33.2
2018-06-14T08:32:24.002Z,33.8
2018-06-14T08:33:25.633Z,33.8
2018-06-14T08:34:27.264Z,34.3
2018-06-14T08:35:28.909Z,34.6
2018-06-14T08:36:30.545Z,34.8
2018-06-14T08:37:32.180Z,34.7
2018-06-14T08:38:33.817Z,35.0
2018-06-14T08:39:35.454Z,34.6
2018-06-14T08:40:37.089Z,35.2
2018-06-14T08:41:38.726Z,35.7
2018-06-14T08:42:40.362Z,34.1
2018-06-14T08:43:42.001Z,33.2
2018-06-14T08:44:43.691Z,32.4
2018-06-14T08:45:45.277Z,33.2
2018-06-14T08:46:46.911Z,34.0
2018-06-14T08:47:48.548Z,34.1
2018-06-14T08:48:50.180Z,34.5
2018-06-14T08:49:51.823Z,33.2
2018-06-14T08:50:53.456Z,32.1
2018-06-14T08:51:55.095Z,31.2
2018-06-14T08:52:56.731Z,30.9
2018-06-14T08:53:58.365Z,30.2
2018-06-14T08:54:59.997Z,29.0
2018-06-14T08:56:01.636Z,28.4
2018-06-14T08:57:03.272Z,27.8
2018-06-14T08:58:04.908Z,27.6
2018-06-14T08:59:06.542Z,27.5
2018-06-14T09:00:08.180Z,27.8
2018-06-14T09:01:09.810Z,29.0
2018-06-14T09:02:11.443Z,30.2
2018-06-14T09:03:13.073Z,30.9
2018-06-14T09:04:14.708Z,32.0
2018-06-14T09:05:16.337Z,32.5
2018-06-14T09:06:17.976Z,32.9
2018-06-14T09:07:19.606Z,33.7
2018-06-14T09:08:21.244Z,34.2
2018-06-14T09:09:22.871Z,34.1
2018-06-14T09:10:24.509Z,33.6
2018-06-14T09:11:26.147Z,33.3
2018-06-14T09:12:27.779Z,32.4
2018-06-14T09:13:29.412Z,32.1
2018-06-14T09:14:31.053Z,31.3
2018-06-14T09:15:32.689Z,31.5
2018-06-14T09:16:34.319Z,32.5
2018-06-14T09:17:35.951Z,32.2
2018-06-14T09:18:37.592Z,31.8
2018-06-14T09:19:39.220Z,31.5
2018-06-14T09:20:40.862Z,31.3
2018-06-14T09:21:42.493Z,30.6
2018-06-14T09:22:44.133Z,30.4
2018-06-14T09:23:45.763Z,30.2
2018-06-14T09:24:47.402Z,29.3
2018-06-14T09:25:49.026Z,29.1
2018-06-14T09:26:50.666Z,28.6
2018-06-14T09:27:52.301Z,28.1
2018-06-14T09:28:53.928Z,28.1
2018-06-14T09:29:55.571Z,27.6
2018-06-14T09:30:57.191Z,28.7
2018-06-14T09:31:58.822Z,29.3
2018-06-14T09:33:00.454Z,30.1
2018-06-14T09:34:02.091Z,30.9
2018-06-14T09:35:03.720Z,31.6
2018-06-14T09:36:05.352Z,32.3
2018-06-14T09:37:06.987Z,32.9
2018-06-14T09:38:08.623Z,32.8
2018-06-14T09:39:10.253Z,32.8
2018-06-14T09:40:11.888Z,33.3
2018-06-14T09:41:13.520Z,33.0
2018-06-14T09:42:15.157Z,31.9
2018-06-14T09:43:16.799Z,31.7
2018-06-14T09:44:18.430Z,31.1
2018-06-14T09:45:20.066Z,30.8
2018-06-14T09:46:21.697Z,30.9
2018-06-14T09:47:23.335Z,30.6
2018-06-14T09:48:24.966Z,30.4
2018-06-14T09:49:26.603Z,30.3
2018-06-14T09:50:28.242Z,30.3
2018-06-14T09:51:29.869Z,30.6
2018-06-14T09:52:31.508Z,31.2
2018-06-14T09:53:33.132Z,31.1
2018-06-14T09:54:34.764Z,30.3
2018-06-14T09:55:36.404Z,30.0
2018-06-14T09:56:38.034Z,29.6
2018-06-14T09:57:39.671Z,29.4
2018-06-14T09:58:41.307Z,30.0
2018-06-14T09:59:42.932Z,29.8
2018-06-14T10:00:44.565Z,29.3
2018-06-14T10:01:46.200Z,29.4
2018-06-14T10:02:47.838Z,30.2
2018-06-14T10:03:49.468Z,30.6
2018-06-14T10:04:51.102Z,30.9
2018-06-14T10:05:52.738Z,30.7
2018-06-14T10:06:54.370Z,30.6
2018-06-14T10:07:56.002Z,29.8
2018-06-14T10:08:57.634Z,29.0
2018-06-14T10:09:59.272Z,28.3
2018-06-14T10:11:00.904Z,28.0
2018-06-14T10:12:02.540Z,27.4
2018-06-14T10:13:04.168Z,27.1
2018-06-14T10:14:05.801Z,27.0
2018-06-14T10:15:07.429Z,27.1
2018-06-14T10:16:09.068Z,26.8
2018-06-14T10:17:10.693Z,26.8
2018-06-14T10:18:12.329Z,27.0
2018-06-14T10:19:13.956Z,27.1
2018-06-14T10:20:15.591Z,27.0
2018-06-14T10:21:17.747Z,27.2
2018-06-14T10:22:18.800Z,27.1
2018-06-14T10:23:20.428Z,27.0
2018-06-14T10:24:22.063Z,27.1
2018-06-14T10:25:23.690Z,27.1
2018-06-14T10:26:25.324Z,27.2
2018-06-14T10:27:26.952Z,27.2
2018-06-14T10:28:28.579Z,27.1
2018-06-14T10:29:30.210Z,27.0
2018-06-14T10:30:31.839Z,27.2
2018-06-14T10:31:33.467Z,27.4
2018-06-14T10:32:35.100Z,28.3
2018-06-14T10:33:36.728Z,28.5
2018-06-14T10:34:38.401Z,28.7
2018-06-14T10:35:39.985Z,28.4
2018-06-14T10:36:41.616Z,28.2
2018-06-14T10:37:43.244Z,28.0
2018-06-14T10:38:44.878Z,27.7
2018-06-14T10:39:46.503Z,27.6
2018-06-14T10:40:48.140Z,27.4
2018-06-14T10:41:49.768Z,27.2
2018-06-14T10:42:51.397Z,27.1
2018-06-14T10:43:53.030Z,27.7
2018-06-14T10:44:54.656Z,28.3
2018-06-14T10:45:56.289Z,28.0
2018-06-14T10:46:57.919Z,27.5
2018-06-14T10:47:59.550Z,28.0
2018-06-14T10:49:01.182Z,28.6
2018-06-14T10:50:02.811Z,28.2
2018-06-14T10:51:04.444Z,27.6
2018-06-14T10:52:06.076Z,28.0
2018-06-14T10:53:07.709Z,28.3
2018-06-14T10:54:09.340Z,28.5
2018-06-14T10:55:10.970Z,29.0
2018-06-14T10:56:12.598Z,29.7
2018-06-14T10:57:14.232Z,29.7
2018-06-14T10:58:15.865Z,29.8
2018-06-14T10:59:17.496Z,29.9
2018-06-14T11:00:19.129Z,30.2
2018-06-14T11:01:20.769Z,30.2
2018-06-14T11:02:22.401Z,30.0
2018-06-14T11:03:24.035Z,29.9
2018-06-14T11:04:25.669Z,30.1
2018-06-14T11:05:27.298Z,29.7
2018-06-14T11:06:28.934Z,29.2
2018-06-14T11:07:30.566Z,28.4
2018-06-14T11:08:32.199Z,28.3
2018-06-14T11:09:33.829Z,28.2
2018-06-14T11:10:35.459Z,28.2
2018-06-14T11:11:37.093Z,28.8
2018-06-14T11:12:38.724Z,29.0
2018-06-14T11:13:40.351Z,29.3
2018-06-14T11:14:41.986Z,29.8
2018-06-14T11:15:43.623Z,30.4
2018-06-14T11:16:45.260Z,30.1
2018-06-14T11:17:46.887Z,29.9
2018-06-14T11:18:48.520Z,29.6
2018-06-14T11:19:50.155Z,29.7
2018-06-14T11:20:51.792Z,30.1
2018-06-14T11:21:53.425Z,30.6
2018-06-14T11:22:55.059Z,30.7
2018-06-14T11:23:56.694Z,30.8
2018-06-14T11:24:58.322Z,31.3
2018-06-14T11:25:59.956Z,31.8
2018-06-14T11:27:01.590Z,32.1
2018-06-14T11:28:03.220Z,31.7
2018-06-14T11:29:04.854Z,32.3
2018-06-14T11:30:06.499Z,32.8
2018-06-14T11:31:08.127Z,33.2
2018-06-14T11:32:09.760Z,33.2
2018-06-14T11:33:11.390Z,32.8
2018-06-14T11:34:13.029Z,31.5
2018-06-14T11:35:14.661Z,31.0
2018-06-14T11:36:16.307Z,30.6
2018-06-14T11:37:17.930Z,30.6
2018-06-14T11:38:19.572Z,30.9
2018-06-14T11:39:21.210Z,31.1
2018-06-14T11:40:22.842Z,30.8
2018-06-14T11:41:24.477Z,30.7
2018-06-14T11:42:26.108Z,30.4
2018-06-14T11:43:27.748Z,30.2
2018-06-14T11:44:29.381Z,30.1
2018-06-14T11:45:31.019Z,29.6
2018-06-14T11:46:32.650Z,29.4
2018-06-14T11:47:34.284Z,29.1
2018-06-14T11:48:35.912Z,29.4
2018-06-14T11:49:37.548Z,29.1
2018-06-14T11:50:39.177Z,29.1
2018-06-14T11:51:40.818Z,29.2
2018-06-14T11:52:42.446Z,29.3
2018-06-14T11:53:44.077Z,29.1
2018-06-14T11:54:45.709Z,28.7
2018-06-14T11:55:47.340Z,28.8
2018-06-14T11:56:48.971Z,28.6
2018-06-14T11:57:50.601Z,28.4
2018-06-14T11:58:52.231Z,28.6
2018-06-14T11:59:53.860Z,28.6
2018-06-14T12:00:55.488Z,28.6
2018-06-14T12:01:57.120Z,28.9
2018-06-14T12:02:58.750Z,28.9
2018-06-14T12:04:00.371Z,29.5
2018-06-14T12:05:02.008Z,29.9
2018-06-14T12:06:03.635Z,30.1
2018-06-14T12:07:05.272Z,29.8
2018-06-14T12:08:06.895Z,30.3
2018-06-14T12:09:08.531Z,30.3
2018-06-14T12:10:10.160Z,30.4
2018-06-14T12:11:11.795Z,30.7
2018-06-14T12:12:13.424Z,30.8
2018-06-14T12:13:15.062Z,31.3
2018-06-14T12:14:16.696Z,30.9
2018-06-14T12:15:18.327Z,31.0
2018-06-14T12:16:19.963Z,30.9
2018-06-14T12:17:21.595Z,30.7
2018-06-14T12:18:23.225Z,30.6
2018-06-14T12:19:24.863Z,30.4
2018-06-14T12:20:26.488Z,30.6
2018-06-14T12:21:28.173Z,30.6
2018-06-14T12:22:29.757Z,30.6
2018-06-14T12:23:31.387Z,30.8
2018-06-14T12:24:33.017Z,30.9
2018-06-14T12:25:34.652Z,31.3
2018-06-14T12:26:36.287Z,31.3
2018-06-14T12:27:37.916Z,30.7
2018-06-14T12:28:39.549Z,30.7
2018-06-14T12:29:41.174Z,30.5
2018-06-14T12:30:42.805Z,30.4
2018-06-14T12:31:44.507Z,30.1
2018-06-14T12:32:46.066Z,30.1
2018-06-14T12:33:47.703Z,30.1
2018-06-14T12:34:49.330Z,29.9
2018-06-14T12:35:50.963Z,30.0
2018-06-14T12:36:52.592Z,29.9
2018-06-14T12:37:54.226Z,29.9
2018-06-14T12:38:55.861Z,30.0
2018-06-14T12:39:57.484Z,30.2
2018-06-14T12:40:59.112Z,30.5
2018-06-14T12:42:00.752Z,30.6
2018-06-14T12:43:02.382Z,30.3
2018-06-14T12:44:04.018Z,30.4
2018-06-14T12:45:05.644Z,30.4
2018-06-14T12:46:07.273Z,30.2
2018-06-14T12:47:08.900Z,30.6
2018-06-14T12:48:10.539Z,31.2
2018-06-14T12:49:12.175Z,31.6
2018-06-14T12:50:13.810Z,31.7
2018-06-14T12:51:15.433Z,31.7
2018-06-14T12:52:17.115Z,31.9
2018-06-14T12:53:18.698Z,32.0
2018-06-14T12:54:20.326Z,32.1
2018-06-14T12:55:21.963Z,31.6
2018-06-14T12:56:23.596Z,31.7
2018-06-14T12:57:25.234Z,31.4
2018-06-14T12:58:26.903Z,31.5
2018-06-14T12:59:28.500Z,31.3
2018-06-14T13:00:30.125Z,31.1
2018-06-14T13:01:31.796Z,31.5
2018-06-14T13:02:33.391Z,30.9
2018-06-14T13:03:35.031Z,31.2
2018-06-14T13:04:36.668Z,31.5
2018-06-14T13:05:38.294Z,31.4
2018-06-14T13:06:39.933Z,31.2
2018-06-14T13:07:41.559Z,30.8
2018-06-14T13:08:43.197Z,30.5
2018-06-14T13:09:44.830Z,30.1
2018-06-14T13:10:46.466Z,29.8
2018-06-14T13:11:48.106Z,29.5
2018-06-14T13:12:49.742Z,29.7
2018-06-14T13:13:51.366Z,29.6
2018-06-14T13:14:53.000Z,29.8
2018-06-14T13:15:54.666Z,29.9
2018-06-14T13:16:56.261Z,29.7
2018-06-14T13:17:57.889Z,29.5
2018-06-14T13:18:59.522Z,29.5
2018-06-14T13:20:01.145Z,29.7
2018-06-14T13:21:02.782Z,29.9
2018-06-14T13:22:04.411Z,29.9
2018-06-14T13:23:06.089Z,29.9
2018-06-14T13:24:07.671Z,29.7
2018-06-14T13:25:09.301Z,29.3
2018-06-14T13:26:10.930Z,29.2
2018-06-14T13:27:12.562Z,29.2
2018-06-14T13:28:14.192Z,29.0
2018-06-14T13:29:15.820Z,28.9
2018-06-14T13:30:17.456Z,28.9
2018-06-14T13:31:19.082Z,28.7
2018-06-14T13:32:20.712Z,29.0
2018-06-14T13:33:22.347Z,28.7
2018-06-14T13:34:23.976Z,28.2
2018-06-14T13:35:25.605Z,28.2
2018-06-14T13:36:27.238Z,28.2
2018-06-14T13:37:28.862Z,28.1
2018-06-14T13:38:30.490Z,28.2
2018-06-14T13:39:32.126Z,28.2
2018-06-14T13:40:33.756Z,28.3